Time;durP1;ratioP1;P1;durP2;ratioP2;P2;SDS_P1;SDS_P2;PMS_P1;PMS_P2;Temp;Humidity;BMP_temperature;BMP_pressure;BME280_temperature;BME280_humidity;BME280_pressure;Samples;Min_cycle;Max_cycle;Signal;HPM_P1;HPM_P2
2023/12/21 00:02:11;;;;;;;3.22;0.90;;;;;;;;;;5049181;28;20506;-86
2023/12/21 00:04:37;;;;;;;3.90;0.75;;;;;;;;;;5030927;28;20068;-86
2023/12/21 00:07:04;;;;;;;0.95;0.68;;;;;;;;;;5047603;28;20059;-86
2023/12/21 00:09:31;;;;;;;1.67;0.52;;;;;;;;;;5050819;28;20048;-86
2023/12/21 00:11:57;;;;;;;1.17;1.08;;;;;;;;;;5035360;28;20053;-87
2023/12/21 00:14:27;;;;;;;1.42;0.65;;;;;;;;;;5049269;28;20080;-87
2023/12/21 00:16:53;;;;;;;0.82;0.70;;;;;;;;;;5033529;28;20076;-86
2023/12/21 00:19:20;;;;;;;0.85;0.68;;;;;;;;;;5049970;28;20081;-86
2023/12/21 00:21:48;;;;;;;0.55;0.40;;;;;;;;;;5050206;28;20071;-86
2023/12/21 00:24:14;;;;;;;2.35;0.70;;;;;;;;;;5033267;28;20053;-86
2023/12/21 00:26:41;;;;;;;0.60;0.40;;;;;;;;;;5050027;28;20495;-86
2023/12/21 00:29:08;;;;;;;1.08;0.40;;;;;;;;;;5033647;28;20045;-86
2023/12/21 00:31:35;;;;;;;0.68;0.45;;;;;;;;;;5027376;28;20418;-86
2023/12/21 00:34:02;;;;;;;1.38;0.43;;;;;;;;;;5033929;28;20041;-86
2023/12/21 00:36:29;;;;;;;1.10;0.55;;;;;;;;;;5051238;28;20056;-86
2023/12/21 00:38:56;;;;;;;0.85;0.60;;;;;;;;;;5036102;28;20049;-87
2023/12/21 00:41:22;;;;;;;1.00;0.52;;;;;;;;;;5050925;28;20082;-87
2023/12/21 00:43:49;;;;;;;0.60;0.60;;;;;;;;;;5061132;28;20085;-86
2023/12/21 00:46:15;;;;;;;1.50;0.22;;;;;;;;;;5060630;28;20108;-85
2023/12/21 00:48:42;;;;;;;0.63;0.43;;;;;;;;;;5064579;28;20048;-87
2023/12/21 00:51:09;;;;;;;0.50;0.50;;;;;;;;;;5047126;28;20102;-86
2023/12/21 00:53:35;;;;;;;0.30;0.28;;;;;;;;;;5047287;28;20076;-85
2023/12/21 00:56:02;;;;;;;0.32;0.20;;;;;;;;;;5065547;28;20053;-85
2023/12/21 00:58:29;;;;;;;0.85;0.75;;;;;;;;;;5048371;28;20083;-82
2023/12/21 01:00:55;;;;;;;0.32;0.32;;;;;;;;;;5062342;28;20055;-84
2023/12/21 01:03:22;;;;;;;1.17;0.52;;;;;;;;;;5045810;28;20084;-84
2023/12/21 01:05:49;;;;;;;0.65;0.35;;;;;;;;;;5052980;28;20033;-83
2023/12/21 01:08:16;;;;;;;0.65;0.30;;;;;;;;;;5054494;28;20058;-84
2023/12/21 01:10:43;;;;;;;0.22;0.15;;;;;;;;;;5050869;28;20073;-83
2023/12/21 01:13:10;;;;;;;0.20;0.20;;;;;;;;;;5054803;28;20053;-82
2023/12/21 01:15:36;;;;;;;0.15;0.15;;;;;;;;;;5062116;28;20097;-82
2023/12/21 01:18:03;;;;;;;0.20;0.20;;;;;;;;;;5046778;28;20045;-82
2023/12/21 01:20:30;;;;;;;0.30;0.10;;;;;;;;;;5061722;28;20048;-82
2023/12/21 01:22:56;;;;;;;0.20;0.20;;;;;;;;;;5046006;28;20143;-82
2023/12/21 01:25:23;;;;;;;0.95;0.30;;;;;;;;;;5047072;28;20110;-82
2023/12/21 01:27:49;;;;;;;0.20;0.20;;;;;;;;;;5044839;28;20068;-81
2023/12/21 01:30:16;;;;;;;1.17;0.10;;;;;;;;;;5058292;28;20057;-82
2023/12/21 01:32:43;;;;;;;1.75;0.40;;;;;;;;;;5061483;28;20088;-82
2023/12/21 01:35:10;;;;;;;0.40;0.32;;;;;;;;;;5058631;28;20053;-82
2023/12/21 01:37:36;;;;;;;0.85;0.40;;;;;;;;;;5044462;28;20052;-82
2023/12/21 01:40:03;;;;;;;2.60;0.40;;;;;;;;;;5056604;28;20049;-82
2023/12/21 01:42:30;;;;;;;1.17;0.30;;;;;;;;;;5062149;28;20049;-84
2023/12/21 01:44:57;;;;;;;1.30;0.40;;;;;;;;;;5055717;28;20081;-83
2023/12/21 01:47:23;;;;;;;0.32;0.25;;;;;;;;;;5052433;28;20049;-85
2023/12/21 01:49:50;;;;;;;1.25;0.30;;;;;;;;;;5040337;28;20049;-84
2023/12/21 01:52:17;;;;;;;0.75;0.32;;;;;;;;;;5056000;28;20054;-83
2023/12/21 01:54:43;;;;;;;0.90;0.30;;;;;;;;;;5041155;28;20048;-84
2023/12/21 01:57:10;;;;;;;1.02;0.20;;;;;;;;;;5060002;28;20071;-83
2023/12/21 01:59:37;;;;;;;1.48;0.30;;;;;;;;;;5038249;28;20077;-84
2023/12/21 02:02:03;;;;;;;0.10;0.10;;;;;;;;;;5048921;28;20077;-83
2023/12/21 02:04:30;;;;;;;1.55;0.30;;;;;;;;;;5034241;28;20510;-84
2023/12/21 02:06:57;;;;;;;0.13;0.13;;;;;;;;;;5050913;28;20071;-84
2023/12/21 02:09:24;;;;;;;0.22;0.22;;;;;;;;;;5052072;28;20115;-83
2023/12/21 02:11:50;;;;;;;0.30;0.30;;;;;;;;;;5059207;28;20049;-82
2023/12/21 02:14:17;;;;;;;0.52;0.10;;;;;;;;;;5046949;28;20053;-83
2023/12/21 02:16:49;;;;;;;0.32;0.10;;;;;;;;;;5058045;28;20072;-83
2023/12/21 02:19:16;;;;;;;0.20;0.20;;;;;;;;;;5040357;28;20076;-82
2023/12/21 02:21:43;;;;;;;0.28;0.10;;;;;;;;;;5042374;28;20068;-82
2023/12/21 02:24:13;;;;;;;0.38;0.30;;;;;;;;;;5042444;28;20041;-83
2023/12/21 02:26:40;;;;;;;0.30;0.30;;;;;;;;;;5041985;28;20091;-82
2023/12/21 02:29:07;;;;;;;0.90;0.10;;;;;;;;;;5037758;28;20075;-81
2023/12/21 02:31:33;;;;;;;1.17;0.20;;;;;;;;;;5041126;28;20049;-82
2023/12/21 02:34:00;;;;;;;0.45;0.20;;;;;;;;;;5043850;28;20053;-82
2023/12/21 02:36:26;;;;;;;0.10;0.10;;;;;;;;;;5046403;28;20057;-82
2023/12/21 02:38:53;;;;;;;0.08;0.08;;;;;;;;;;5065502;28;20055;-82
2023/12/21 02:41:20;;;;;;;0.38;0.08;;;;;;;;;;5065587;28;20117;-82
2023/12/21 02:43:47;;;;;;;0.47;0.30;;;;;;;;;;5049149;28;20139;-81
2023/12/21 02:46:13;;;;;;;0.10;0.10;;;;;;;;;;5050458;28;20063;-82
2023/12/21 02:48:40;;;;;;;0.32;0.20;;;;;;;;;;5048945;28;20163;-82
2023/12/21 02:51:07;;;;;;;0.90;0.28;;;;;;;;;;5064579;28;20045;-82
2023/12/21 02:53:33;;;;;;;1.23;0.20;;;;;;;;;;5052939;28;20087;-80
2023/12/21 02:56:00;;;;;;;0.10;0.10;;;;;;;;;;5059620;28;20077;-81
2023/12/21 02:58:26;;;;;;;0.10;0.10;;;;;;;;;;5066540;28;20446;-81
2023/12/21 03:00:53;;;;;;;0.08;0.08;;;;;;;;;;5036541;28;20049;-81
2023/12/21 03:03:20;;;;;;;0.50;0.43;;;;;;;;;;5038191;28;20049;-81
2023/12/21 03:05:46;;;;;;;0.00;0.00;;;;;;;;;;5057139;28;20087;-82
2023/12/21 03:08:13;;;;;;;0.10;0.10;;;;;;;;;;5053725;28;20104;-84
2023/12/21 03:10:40;;;;;;;0.85;0.10;;;;;;;;;;5052424;28;20535;-83
2023/12/21 03:13:07;;;;;;;0.10;0.08;;;;;;;;;;5056401;28;20045;-83
2023/12/21 03:15:33;;;;;;;2.47;0.30;;;;;;;;;;5081357;28;20048;-82
2023/12/21 03:18:00;;;;;;;0.05;0.05;;;;;;;;;;5071579;28;20067;-81
2023/12/21 03:20:27;;;;;;;0.22;0.20;;;;;;;;;;5063245;28;20091;-82
2023/12/21 03:22:53;;;;;;;0.00;0.00;;;;;;;;;;5054329;28;20060;-82
2023/12/21 03:25:20;;;;;;;0.25;0.10;;;;;;;;;;5055288;28;20075;-82
2023/12/21 03:27:47;;;;;;;0.08;0.08;;;;;;;;;;5058848;28;20064;-82
2023/12/21 03:30:14;;;;;;;0.00;0.00;;;;;;;;;;5087316;28;20064;-82
2023/12/21 03:32:42;;;;;;;0.30;0.15;;;;;;;;;;5045039;28;20517;-83
2023/12/21 03:35:10;;;;;;;0.90;0.17;;;;;;;;;;5055930;28;20053;-80
2023/12/21 03:37:38;;;;;;;0.10;0.05;;;;;;;;;;5050920;28;20083;-79
2023/12/21 03:40:06;;;;;;;0.10;0.10;;;;;;;;;;5058143;28;20422;-79
2023/12/21 03:42:32;;;;;;;0.17;0.10;;;;;;;;;;5050961;28;20435;-79
2023/12/21 03:44:59;;;;;;;0.95;0.10;;;;;;;;;;5058476;28;20071;-79
2023/12/21 03:47:26;;;;;;;0.10;0.08;;;;;;;;;;5074281;28;20718;-79
2023/12/21 03:49:52;;;;;;;0.10;0.10;;;;;;;;;;5073970;28;20049;-79
2023/12/21 03:52:19;;;;;;;0.10;0.10;;;;;;;;;;5050426;28;20057;-79
2023/12/21 03:54:47;;;;;;;0.10;0.10;;;;;;;;;;5057084;28;20089;-80
2023/12/21 03:57:14;;;;;;;0.00;0.00;;;;;;;;;;5055949;28;20048;-81
2023/12/21 03:59:43;;;;;;;1.15;0.05;;;;;;;;;;5073051;28;20049;-80
2023/12/21 04:02:11;;;;;;;0.20;0.03;;;;;;;;;;5039017;28;20053;-81
2023/12/21 04:04:37;;;;;;;0.40;0.20;;;;;;;;;;5035116;28;20045;-81
2023/12/21 04:07:04;;;;;;;0.40;0.30;;;;;;;;;;5056129;28;20049;-78
2023/12/21 04:09:31;;;;;;;0.40;0.17;;;;;;;;;;5067579;28;20053;-82
2023/12/21 04:11:57;;;;;;;0.03;0.00;;;;;;;;;;5072376;28;20053;-88
2023/12/21 04:14:24;;;;;;;0.10;0.10;;;;;;;;;;5053352;28;20423;-88
2023/12/21 04:16:51;;;;;;;0.10;0.10;;;;;;;;;;5051885;28;20053;-88
2023/12/21 04:19:18;;;;;;;0.10;0.10;;;;;;;;;;5070111;28;20396;-88
2023/12/21 04:21:45;;;;;;;0.45;0.00;;;;;;;;;;5052168;28;20055;-85
2023/12/21 04:24:12;;;;;;;0.00;0.00;;;;;;;;;;5055632;28;20503;-84
2023/12/21 04:26:39;;;;;;;0.10;0.10;;;;;;;;;;5057889;28;20072;-80
2023/12/21 04:29:06;;;;;;;0.10;0.10;;;;;;;;;;5057431;28;20096;-82
2023/12/21 04:31:33;;;;;;;0.22;0.10;;;;;;;;;;5060461;28;20053;-82
2023/12/21 04:33:59;;;;;;;0.17;0.10;;;;;;;;;;5059382;28;20060;-82
2023/12/21 04:36:27;;;;;;;0.10;0.10;;;;;;;;;;5059203;28;20063;-83
2023/12/21 04:38:55;;;;;;;1.30;0.08;;;;;;;;;;5059748;28;20073;-83
2023/12/21 04:41:22;;;;;;;0.50;0.20;;;;;;;;;;5059651;28;20083;-83
2023/12/21 04:43:49;;;;;;;0.30;0.05;;;;;;;;;;5077136;28;20135;-82
2023/12/21 04:46:17;;;;;;;0.03;0.03;;;;;;;;;;5062637;28;20053;-82
2023/12/21 04:48:43;;;;;;;0.47;0.25;;;;;;;;;;5049994;28;20102;-82
2023/12/21 04:51:14;;;;;;;0.47;0.17;;;;;;;;;;5040063;28;20090;-82
2023/12/21 04:53:41;;;;;;;1.10;0.17;;;;;;;;;;5037850;28;20111;-83
2023/12/21 04:56:07;;;;;;;0.20;0.20;;;;;;;;;;5057203;28;20083;-82
2023/12/21 04:58:34;;;;;;;0.10;0.00;;;;;;;;;;5066089;28;20081;-82
2023/12/21 05:01:01;;;;;;;0.65;0.10;;;;;;;;;;5063256;28;20041;-83
2023/12/21 05:03:27;;;;;;;1.13;0.60;;;;;;;;;;5051856;28;20049;-82
2023/12/21 05:05:54;;;;;;;0.65;0.10;;;;;;;;;;5075384;28;20045;-83
2023/12/21 05:08:22;;;;;;;0.10;0.10;;;;;;;;;;5058423;28;20080;-84
2023/12/21 05:10:48;;;;;;;2.10;0.28;;;;;;;;;;5045057;28;20049;-83
2023/12/21 05:13:15;;;;;;;1.00;0.20;;;;;;;;;;5060201;28;20056;-85
2023/12/21 05:15:42;;;;;;;0.28;0.28;;;;;;;;;;5043541;28;20048;-84
2023/12/21 05:18:09;;;;;;;0.30;0.03;;;;;;;;;;5070040;28;20091;-84
2023/12/21 05:20:35;;;;;;;0.85;0.22;;;;;;;;;;5055090;28;20048;-80
2023/12/21 05:23:02;;;;;;;0.03;0.03;;;;;;;;;;5051488;28;20069;-80
2023/12/21 05:25:29;;;;;;;0.38;0.32;;;;;;;;;;5036196;28;20061;-82
2023/12/21 05:27:55;;;;;;;0.13;0.10;;;;;;;;;;5053523;28;20052;-82
2023/12/21 05:30:22;;;;;;;0.30;0.20;;;;;;;;;;5036927;28;20136;-82
2023/12/21 05:32:49;;;;;;;0.30;0.30;;;;;;;;;;5072262;28;20048;-83
2023/12/21 05:35:16;;;;;;;0.30;0.20;;;;;;;;;;5048695;28;20392;-86
2023/12/21 05:37:43;;;;;;;0.20;0.20;;;;;;;;;;5038274;28;20469;-83
2023/12/21 05:40:10;;;;;;;0.73;0.10;;;;;;;;;;5055286;28;20049;-84
2023/12/21 05:42:36;;;;;;;0.30;0.20;;;;;;;;;;5047761;28;20175;-84
2023/12/21 05:45:03;;;;;;;0.08;0.08;;;;;;;;;;5030605;28;20119;-84
2023/12/21 05:47:31;;;;;;;2.63;0.25;;;;;;;;;;5044307;28;20098;-84
2023/12/21 05:49:58;;;;;;;0.20;0.10;;;;;;;;;;5049336;28;20048;-80
2023/12/21 05:52:25;;;;;;;0.13;0.13;;;;;;;;;;5084610;28;20048;-79
2023/12/21 05:54:52;;;;;;;0.35;0.13;;;;;;;;;;5063925;28;20491;-81
2023/12/21 05:57:19;;;;;;;0.08;0.05;;;;;;;;;;5039454;28;20079;-81
2023/12/21 05:59:45;;;;;;;0.17;0.10;;;;;;;;;;5056496;28;20059;-82
2023/12/21 06:02:12;;;;;;;0.52;0.32;;;;;;;;;;5057493;28;20076;-81
2023/12/21 06:04:39;;;;;;;0.00;0.00;;;;;;;;;;5055472;28;20084;-82
2023/12/21 06:07:06;;;;;;;0.10;0.10;;;;;;;;;;5052868;28;20085;-81
2023/12/21 06:09:33;;;;;;;0.15;0.10;;;;;;;;;;5068196;28;20049;-81
2023/12/21 06:11:59;;;;;;;0.10;0.10;;;;;;;;;;5055480;28;20072;-82
2023/12/21 06:14:26;;;;;;;0.00;0.00;;;;;;;;;;5056071;28;20050;-82
2023/12/21 06:16:52;;;;;;;0.00;0.00;;;;;;;;;;5056799;28;20044;-82
2023/12/21 06:19:19;;;;;;;0.10;0.10;;;;;;;;;;5051578;28;20103;-81
2023/12/21 06:21:46;;;;;;;0.40;0.13;;;;;;;;;;5060588;28;20051;-81
2023/12/21 06:24:12;;;;;;;0.63;0.20;;;;;;;;;;5055330;28;20080;-80
2023/12/21 06:26:40;;;;;;;0.85;0.57;;;;;;;;;;5057189;28;20053;-83
2023/12/21 06:29:06;;;;;;;1.23;0.70;;;;;;;;;;5060024;28;20534;-80
2023/12/21 06:31:33;;;;;;;0.40;0.20;;;;;;;;;;5041929;28;20053;-83
2023/12/21 06:34:01;;;;;;;0.60;0.40;;;;;;;;;;5036525;28;20052;-84
2023/12/21 06:36:28;;;;;;;0.30;0.20;;;;;;;;;;5037722;28;20592;-85
2023/12/21 06:38:55;;;;;;;3.17;0.32;;;;;;;;;;5048437;28;20529;-88
2023/12/21 06:41:21;;;;;;;0.95;0.30;;;;;;;;;;5067326;28;20080;-85
2023/12/21 06:43:48;;;;;;;0.10;0.10;;;;;;;;;;5032329;28;20132;-89
2023/12/21 06:46:15;;;;;;;0.15;0.10;;;;;;;;;;5048343;28;20053;-88
2023/12/21 06:48:42;;;;;;;0.10;0.10;;;;;;;;;;5047828;28;20049;-84
2023/12/21 06:51:09;;;;;;;0.03;0.03;;;;;;;;;;5048549;28;21208;-85
2023/12/21 06:53:35;;;;;;;0.30;0.20;;;;;;;;;;5052835;28;20498;-84
2023/12/21 06:56:02;;;;;;;0.32;0.13;;;;;;;;;;5068334;28;20040;-84
2023/12/21 06:58:48;;;;;;;0.30;0.10;;;;;;;;;;5065581;28;20059;-84
2023/12/21 07:01:15;;;;;;;0.08;0.08;;;;;;;;;;5030709;28;20123;-83
2023/12/21 07:03:42;;;;;;;1.40;0.20;;;;;;;;;;5051248;28;20048;-84
2023/12/21 07:06:10;;;;;;;0.25;0.20;;;;;;;;;;5051325;28;20485;-86
2023/12/21 07:08:37;;;;;;;0.20;0.20;;;;;;;;;;5035490;28;20125;-84
2023/12/21 07:11:03;;;;;;;0.40;0.30;;;;;;;;;;5035277;28;20049;-84
2023/12/21 07:13:30;;;;;;;0.30;0.28;;;;;;;;;;5051448;28;20123;-84
2023/12/21 07:15:57;;;;;;;0.20;0.20;;;;;;;;;;5050818;28;20115;-85
2023/12/21 07:18:24;;;;;;;0.40;0.22;;;;;;;;;;5050942;28;20135;-84
2023/12/21 07:20:51;;;;;;;0.10;0.10;;;;;;;;;;5049779;28;20103;-86
2023/12/21 07:23:18;;;;;;;1.63;0.63;;;;;;;;;;5033050;28;20060;-84
2023/12/21 07:25:45;;;;;;;1.20;0.10;;;;;;;;;;5032996;28;20053;-87
2023/12/21 07:28:11;;;;;;;0.25;0.10;;;;;;;;;;5032604;28;20065;-85
2023/12/21 07:30:38;;;;;;;1.02;0.10;;;;;;;;;;5050275;28;20064;-83
2023/12/21 07:33:05;;;;;;;0.20;0.20;;;;;;;;;;5049939;28;20052;-85
2023/12/21 07:35:32;;;;;;;0.50;0.20;;;;;;;;;;5035512;28;20045;-84
2023/12/21 07:37:58;;;;;;;1.05;0.20;;;;;;;;;;5064549;28;20463;-86
2023/12/21 07:40:25;;;;;;;0.10;0.10;;;;;;;;;;5049560;28;20084;-87
2023/12/21 07:42:51;;;;;;;1.08;0.10;;;;;;;;;;5031573;28;20094;-89
2023/12/21 07:45:18;;;;;;;0.20;0.20;;;;;;;;;;5031499;28;20045;-87
2023/12/21 07:47:45;;;;;;;0.73;0.30;;;;;;;;;;5047985;28;20491;-87
2023/12/21 07:50:11;;;;;;;0.10;0.10;;;;;;;;;;5052228;28;20573;-85
2023/12/21 07:52:38;;;;;;;0.52;0.10;;;;;;;;;;5041821;28;20045;-82
2023/12/21 07:55:06;;;;;;;0.50;0.50;;;;;;;;;;5055891;28;20045;-81
2023/12/21 07:57:34;;;;;;;0.43;0.10;;;;;;;;;;5061165;28;20060;-83
2023/12/21 08:00:01;;;;;;;0.68;0.20;;;;;;;;;;5044111;28;20106;-81
2023/12/21 08:02:27;;;;;;;0.35;0.30;;;;;;;;;;5059933;28;20073;-81
2023/12/21 08:04:54;;;;;;;0.10;0.10;;;;;;;;;;5062882;28;20627;-83
2023/12/21 08:07:20;;;;;;;0.30;0.30;;;;;;;;;;5032319;28;20076;-85
2023/12/21 08:09:47;;;;;;;0.10;0.10;;;;;;;;;;5034342;28;20048;-81
2023/12/21 08:12:14;;;;;;;1.88;0.90;;;;;;;;;;5044484;28;20588;-86
2023/12/21 08:14:41;;;;;;;1.48;0.60;;;;;;;;;;5047569;28;20144;-85
2023/12/21 08:17:09;;;;;;;2.10;0.80;;;;;;;;;;5031847;28;20095;-76
2023/12/21 08:19:37;;;;;;;0.63;0.47;;;;;;;;;;5051561;28;20586;-84
2023/12/21 08:22:04;;;;;;;0.20;0.20;;;;;;;;;;5068219;28;20033;-77
2023/12/21 08:24:31;;;;;;;0.28;0.10;;;;;;;;;;5050606;28;20049;-84
2023/12/21 08:26:58;;;;;;;0.38;0.30;;;;;;;;;;5067063;28;20072;-84
2023/12/21 08:29:25;;;;;;;0.20;0.10;;;;;;;;;;5057116;28;20091;-79
2023/12/21 08:31:52;;;;;;;0.20;0.15;;;;;;;;;;5044761;28;20044;-88
2023/12/21 08:34:22;;;;;;;0.38;0.30;;;;;;;;;;5030971;28;20060;-85
2023/12/21 08:36:50;;;;;;;0.47;0.28;;;;;;;;;;5046167;28;20112;-87
2023/12/21 08:39:16;;;;;;;0.28;0.10;;;;;;;;;;5039220;28;20057;-79
2023/12/21 08:41:43;;;;;;;1.85;0.22;;;;;;;;;;5059214;28;20463;-77
2023/12/21 08:44:10;;;;;;;0.15;0.15;;;;;;;;;;5043182;28;20101;-82
2023/12/21 08:46:40;;;;;;;1.58;0.13;;;;;;;;;;5050287;28;20503;-80
2023/12/21 08:49:07;;;;;;;0.77;0.40;;;;;;;;;;5044707;28;20040;-82
2023/12/21 08:51:37;;;;;;;1.50;0.30;;;;;;;;;;5043438;28;20202;-82
2023/12/21 08:54:05;;;;;;;1.27;0.38;;;;;;;;;;5046459;28;20124;-85
2023/12/21 08:56:31;;;;;;;1.95;0.85;;;;;;;;;;5044214;28;20057;-83
2023/12/21 08:58:58;;;;;;;1.50;0.85;;;;;;;;;;5040790;28;20056;-82
2023/12/21 09:01:25;;;;;;;0.55;0.50;;;;;;;;;;5042351;28;20087;-83
2023/12/21 09:03:52;;;;;;;3.53;1.52;;;;;;;;;;5038293;28;20090;-80
2023/12/21 09:06:19;;;;;;;0.50;0.40;;;;;;;;;;5035562;28;20092;-81
2023/12/21 09:08:46;;;;;;;2.72;0.95;;;;;;;;;;5032618;28;20772;-82
2023/12/21 09:11:12;;;;;;;2.15;1.20;;;;;;;;;;5026253;28;20057;-82
2023/12/21 09:13:39;;;;;;;0.55;0.50;;;;;;;;;;5030279;28;20057;-82
2023/12/21 09:16:06;;;;;;;1.02;0.55;;;;;;;;;;5061977;28;20052;-84
2023/12/21 09:18:32;;;;;;;0.35;0.35;;;;;;;;;;5048448;28;20453;-79
2023/12/21 09:20:59;;;;;;;1.65;0.40;;;;;;;;;;5058981;28;20060;-84
2023/12/21 09:23:26;;;;;;;0.88;0.50;;;;;;;;;;5040662;28;20056;-83
2023/12/21 09:25:53;;;;;;;1.40;0.52;;;;;;;;;;5046328;28;20411;-83
2023/12/21 09:28:19;;;;;;;1.67;0.70;;;;;;;;;;5047147;28;20145;-83
2023/12/21 09:30:46;;;;;;;1.20;0.40;;;;;;;;;;5041677;28;20075;-83
2023/12/21 09:33:13;;;;;;;0.73;0.40;;;;;;;;;;5040375;28;20103;-83
2023/12/21 09:35:39;;;;;;;0.20;0.20;;;;;;;;;;5048046;28;20183;-83
2023/12/21 09:38:08;;;;;;;0.65;0.17;;;;;;;;;;5049530;28;20056;-84
2023/12/21 09:40:37;;;;;;;0.20;0.20;;;;;;;;;;5039380;28;20056;-83
2023/12/21 09:43:05;;;;;;;0.40;0.20;;;;;;;;;;5046735;28;20656;-83
2023/12/21 09:45:40;;;;;;;0.60;0.32;;;;;;;;;;5063115;28;20049;-83
2023/12/21 09:48:07;;;;;;;0.82;0.52;;;;;;;;;;5057430;28;20487;-83
2023/12/21 09:50:34;;;;;;;0.28;0.20;;;;;;;;;;5044606;28;20102;-84
2023/12/21 09:53:00;;;;;;;3.83;0.43;;;;;;;;;;5064272;28;20045;-83
2023/12/21 09:55:27;;;;;;;0.30;0.25;;;;;;;;;;5049792;28;20053;-83
2023/12/21 09:57:54;;;;;;;2.53;0.40;;;;;;;;;;5048276;28;20048;-83
2023/12/21 10:00:21;;;;;;;0.75;0.30;;;;;;;;;;5049389;28;20128;-81
2023/12/21 10:02:47;;;;;;;0.20;0.10;;;;;;;;;;5066331;28;20041;-83
2023/12/21 10:05:15;;;;;;;0.47;0.35;;;;;;;;;;5057282;28;20392;-84
2023/12/21 10:07:42;;;;;;;1.85;0.30;;;;;;;;;;5036904;28;20096;-83
2023/12/21 10:10:09;;;;;;;0.40;0.40;;;;;;;;;;5054898;28;20046;-81
2023/12/21 10:12:38;;;;;;;0.60;0.30;;;;;;;;;;5070013;28;20060;-82
2023/12/21 10:15:06;;;;;;;0.28;0.10;;;;;;;;;;5036296;28;20132;-82
2023/12/21 10:17:32;;;;;;;1.45;0.20;;;;;;;;;;5054231;28;20091;-82
2023/12/21 10:20:00;;;;;;;0.43;0.20;;;;;;;;;;5059925;28;20087;-82
2023/12/21 10:22:30;;;;;;;1.42;0.40;;;;;;;;;;5070373;28;20079;-82
2023/12/21 10:24:57;;;;;;;0.10;0.10;;;;;;;;;;5069118;28;20052;-82
2023/12/21 10:27:25;;;;;;;0.75;0.17;;;;;;;;;;5055446;28;20053;-83
2023/12/21 10:29:53;;;;;;;0.20;0.10;;;;;;;;;;5061715;28;20067;-81
2023/12/21 10:32:20;;;;;;;0.10;0.10;;;;;;;;;;5056488;28;20073;-79
2023/12/21 10:34:47;;;;;;;0.30;0.20;;;;;;;;;;5071900;28;20083;-82
2023/12/21 10:37:14;;;;;;;0.47;0.20;;;;;;;;;;5039081;28;20054;-81
2023/12/21 10:39:41;;;;;;;0.15;0.10;;;;;;;;;;5056772;28;20041;-80
2023/12/21 10:42:08;;;;;;;1.50;0.50;;;;;;;;;;5059756;28;20588;-79
2023/12/21 10:44:35;;;;;;;1.58;0.70;;;;;;;;;;5063780;28;20083;-79
2023/12/21 10:47:02;;;;;;;1.63;0.60;;;;;;;;;;5043745;28;20060;-81
2023/12/21 10:49:29;;;;;;;2.08;1.00;;;;;;;;;;5056114;28;20433;-82
2023/12/21 10:51:56;;;;;;;3.88;0.30;;;;;;;;;;5059705;28;20513;-82
2023/12/21 10:54:24;;;;;;;0.85;0.50;;;;;;;;;;5057968;28;20559;-82
2023/12/21 10:56:52;;;;;;;0.60;0.50;;;;;;;;;;5057342;28;20119;-82
2023/12/21 10:59:19;;;;;;;0.30;0.30;;;;;;;;;;5069955;28;20053;-81
2023/12/21 11:01:46;;;;;;;0.50;0.40;;;;;;;;;;5055459;28;20040;-82
2023/12/21 11:04:13;;;;;;;1.10;0.60;;;;;;;;;;5041710;28;20049;-82
2023/12/21 11:06:40;;;;;;;1.45;0.50;;;;;;;;;;5043889;28;20060;-83
2023/12/21 11:09:09;;;;;;;1.05;0.70;;;;;;;;;;5054454;28;20507;-82
2023/12/21 11:11:36;;;;;;;2.03;0.77;;;;;;;;;;5070054;28;20144;-80
2023/12/21 11:14:03;;;;;;;0.20;0.20;;;;;;;;;;5059381;28;20049;-82
2023/12/21 11:16:37;;;;;;;0.50;0.40;;;;;;;;;;5055021;28;20061;-82
2023/12/21 11:19:05;;;;;;;0.52;0.50;;;;;;;;;;5036846;28;20121;-82
2023/12/21 11:21:32;;;;;;;1.83;1.23;;;;;;;;;;5067855;28;20099;-82
2023/12/21 11:23:59;;;;;;;0.80;0.80;;;;;;;;;;5056673;28;20045;-82
2023/12/21 11:26:28;;;;;;;0.30;0.30;;;;;;;;;;5053632;28;20060;-81
2023/12/21 11:29:04;;;;;;;0.10;0.10;;;;;;;;;;5069542;28;20095;-82
2023/12/21 11:31:35;;;;;;;0.35;0.25;;;;;;;;;;5068532;28;20037;-82
2023/12/21 11:34:15;;;;;;;0.50;0.30;;;;;;;;;;5078962;28;20044;-82
2023/12/21 11:36:43;;;;;;;1.85;0.90;;;;;;;;;;5053780;28;20053;-81
2023/12/21 11:39:20;;;;;;;1.77;0.73;;;;;;;;;;5056185;28;20067;-82
2023/12/21 11:41:57;;;;;;;1.45;0.68;;;;;;;;;;5053762;28;20049;-82
2023/12/21 11:44:33;;;;;;;1.10;0.65;;;;;;;;;;5051706;28;20072;-82
2023/12/21 11:47:00;;;;;;;1.42;0.50;;;;;;;;;;5053492;28;20049;-82
2023/12/21 11:49:27;;;;;;;1.30;0.47;;;;;;;;;;5056063;28;20044;-82
2023/12/21 11:51:54;;;;;;;1.23;0.60;;;;;;;;;;5058869;28;20045;-83
2023/12/21 11:54:22;;;;;;;0.57;0.55;;;;;;;;;;5040205;28;20045;-82
2023/12/21 11:56:53;;;;;;;0.45;0.20;;;;;;;;;;5055856;28;20384;-83
2023/12/21 11:59:23;;;;;;;1.02;0.38;;;;;;;;;;5043959;28;21410;-82
2023/12/21 12:01:50;;;;;;;0.30;0.30;;;;;;;;;;5046105;28;20076;-82
2023/12/21 12:04:16;;;;;;;1.33;0.57;;;;;;;;;;5046353;28;20084;-82
2023/12/21 12:06:44;;;;;;;0.63;0.50;;;;;;;;;;5058702;28;20072;-81
2023/12/21 12:09:11;;;;;;;0.20;0.20;;;;;;;;;;5031091;28;20056;-81
2023/12/21 12:11:38;;;;;;;0.98;0.50;;;;;;;;;;5033766;28;20120;-82
2023/12/21 12:14:05;;;;;;;0.98;0.60;;;;;;;;;;5031146;28;20055;-82
2023/12/21 12:16:34;;;;;;;1.55;0.73;;;;;;;;;;5047458;28;20052;-83
2023/12/21 12:19:02;;;;;;;2.35;0.90;;;;;;;;;;5060605;28;20056;-82
2023/12/21 12:21:32;;;;;;;0.52;0.30;;;;;;;;;;5048706;28;20150;-82
2023/12/21 12:23:59;;;;;;;0.85;0.65;;;;;;;;;;5048688;28;20044;-81
2023/12/21 12:26:27;;;;;;;0.80;0.38;;;;;;;;;;5043135;28;20115;-81
2023/12/21 12:28:54;;;;;;;2.58;0.50;;;;;;;;;;5030688;28;20087;-81
2023/12/21 12:31:21;;;;;;;0.50;0.43;;;;;;;;;;5027968;28;20049;-82
2023/12/21 12:33:48;;;;;;;0.60;0.30;;;;;;;;;;5030122;28;20045;-81
2023/12/21 12:36:19;;;;;;;3.20;1.20;;;;;;;;;;5059918;28;20057;-82
2023/12/21 12:38:46;;;;;;;3.63;0.98;;;;;;;;;;5037833;28;20471;-82
2023/12/21 12:41:19;;;;;;;0.20;0.20;;;;;;;;;;5066822;28;20494;-82
2023/12/21 12:43:47;;;;;;;0.65;0.52;;;;;;;;;;5054700;28;20098;-82
2023/12/21 12:46:14;;;;;;;1.02;0.73;;;;;;;;;;5067212;28;20095;-81
2023/12/21 12:48:41;;;;;;;0.40;0.35;;;;;;;;;;5036545;28;20052;-82
2023/12/21 12:51:11;;;;;;;0.47;0.30;;;;;;;;;;5036905;28;20415;-84
2023/12/21 12:53:39;;;;;;;0.60;0.30;;;;;;;;;;5067493;28;20085;-77
2023/12/21 12:56:06;;;;;;;0.63;0.30;;;;;;;;;;5054420;28;20087;-80
2023/12/21 12:58:35;;;;;;;0.30;0.30;;;;;;;;;;5035548;28;20049;-80
2023/12/21 13:01:21;;;;;;;1.38;0.65;;;;;;;;;;5043129;28;20130;-84
2023/12/21 13:03:51;;;;;;;1.33;0.80;;;;;;;;;;5048616;28;20045;-77
2023/12/21 13:06:18;;;;;;;1.48;0.52;;;;;;;;;;5048583;28;20049;-75
2023/12/21 13:08:46;;;;;;;2.83;1.00;;;;;;;;;;5048511;28;20057;-81
2023/12/21 13:11:15;;;;;;;1.58;0.60;;;;;;;;;;5049985;28;20052;-80
2023/12/21 13:13:42;;;;;;;0.60;0.35;;;;;;;;;;5048247;28;20049;-80
2023/12/21 13:16:09;;;;;;;1.80;0.22;;;;;;;;;;5046769;28;20049;-76
2023/12/21 13:18:36;;;;;;;1.35;0.50;;;;;;;;;;5043754;28;20053;-78
2023/12/21 13:21:03;;;;;;;1.23;0.50;;;;;;;;;;5046462;28;20064;-82
2023/12/21 13:23:31;;;;;;;0.73;0.32;;;;;;;;;;5047902;28;20427;-82
2023/12/21 13:25:58;;;;;;;0.20;0.20;;;;;;;;;;5044267;28;20041;-85
2023/12/21 13:28:25;;;;;;;0.10;0.10;;;;;;;;;;5047464;28;20049;-84
2023/12/21 13:30:51;;;;;;;0.30;0.00;;;;;;;;;;5050827;28;20084;-76
2023/12/21 13:33:19;;;;;;;0.00;0.00;;;;;;;;;;5061199;28;20064;-81
2023/12/21 13:35:46;;;;;;;0.22;0.20;;;;;;;;;;5038512;28;20056;-79
2023/12/21 13:38:14;;;;;;;0.05;0.05;;;;;;;;;;5080330;28;20053;-80
2023/12/21 13:40:41;;;;;;;0.30;0.28;;;;;;;;;;5048068;28;20056;-77
2023/12/21 13:43:08;;;;;;;0.20;0.20;;;;;;;;;;5060086;28;20451;-78
2023/12/21 13:45:35;;;;;;;0.15;0.13;;;;;;;;;;5042903;28;20057;-77
2023/12/21 13:48:02;;;;;;;0.63;0.25;;;;;;;;;;5033347;28;20102;-77
2023/12/21 13:50:29;;;;;;;0.22;0.17;;;;;;;;;;5047768;28;20440;-75
2023/12/21 13:52:56;;;;;;;0.20;0.20;;;;;;;;;;5039034;28;20107;-83
2023/12/21 13:55:22;;;;;;;0.22;0.20;;;;;;;;;;5058041;28;20057;-83
2023/12/21 13:57:49;;;;;;;0.13;0.13;;;;;;;;;;5051124;28;20108;-81
2023/12/21 14:00:30;;;;;;;0.17;0.10;;;;;;;;;;5057983;28;20060;-80
2023/12/21 14:02:58;;;;;;;1.77;0.40;;;;;;;;;;5041423;28;20049;-82
2023/12/21 14:05:25;;;;;;;1.40;0.30;;;;;;;;;;5029919;28;20057;-82
2023/12/21 14:07:53;;;;;;;0.70;0.50;;;;;;;;;;5053953;28;20426;-83
2023/12/21 14:10:20;;;;;;;0.43;0.30;;;;;;;;;;5050135;28;20486;-77
2023/12/21 14:12:48;;;;;;;0.40;0.13;;;;;;;;;;5068605;28;20056;-81
2023/12/21 14:15:16;;;;;;;0.17;0.10;;;;;;;;;;5053536;28;20053;-83
2023/12/21 14:17:45;;;;;;;0.20;0.20;;;;;;;;;;5036314;28;20132;-84
2023/12/21 14:20:12;;;;;;;0.20;0.20;;;;;;;;;;5077524;28;20053;-82
2023/12/21 14:22:38;;;;;;;0.20;0.10;;;;;;;;;;5060244;28;20064;-78
2023/12/21 14:25:06;;;;;;;0.05;0.05;;;;;;;;;;5069328;28;20072;-78
2023/12/21 14:27:35;;;;;;;0.13;0.10;;;;;;;;;;5091267;28;20057;-79
2023/12/21 14:30:04;;;;;;;0.10;0.10;;;;;;;;;;5058945;28;20041;-79
2023/12/21 14:32:30;;;;;;;0.32;0.20;;;;;;;;;;5087104;28;20041;-81
2023/12/21 14:34:57;;;;;;;0.20;0.20;;;;;;;;;;5061439;28;20041;-78
2023/12/21 14:37:24;;;;;;;0.13;0.10;;;;;;;;;;5063615;28;20057;-77
2023/12/21 14:39:52;;;;;;;0.30;0.10;;;;;;;;;;5061894;28;20067;-77
2023/12/21 14:42:20;;;;;;;2.15;0.60;;;;;;;;;;5049166;28;20140;-78
2023/12/21 14:44:47;;;;;;;0.55;0.30;;;;;;;;;;5043209;28;20056;-79